EHJR

K13-a Sea

K13-a Sea, The Netherlands
METAR EHJR 212255Z AUTO 18014KT //// // ///////// 18/18 Q1018 RE// W18/H7
Observed Flight Rules
Aug-21 @ 22:55 UTC (53 minutes ago)
Wind
180° at 14 knots
Temperatures Readings
Current 18°C / 64°F
Dewpoint 18°C / 64°F
Humidity 100%
Altimeter 30.06" Hg
Pressure 1018 hPa
Elevation 50
METAR EHJR 212255Z AUTO 18014KT //// // ///////// 18/18 Q1018 RE// W18/H7
Observed Flight Rules
Aug-21 @ 22:55 UTC
(53 minutes ago)
Wind
180° at 14 knots
Temperature Dewpoint
18°C / 64°F 18°C / 64°F
Humidity Altimeter Pressure
100% 30.06" Hg 1018 hPa